Time,TemperatureF,DewpointF,PressureIn,WindDirection,WindDirectionDegrees,WindSpeedMPH,WindSpeedGustMPH,Humidity,HourlyPrecipIn,Conditions,Clouds,dailyrainin,SoftwareType,DateUTC
2013-12-04 00:01:00,26.0,25.0,30.00,NNE,32,0.0,0.0,96,0.00,,,0.00,VWS V14.01,2013-12-04 05:01:00,
2013-12-04 00:02:00,26.0,25.0,30.00,NNE,32,0.0,0.0,96,0.00,,,0.00,VWS V14.01,2013-12-04 05:02:00,
2013-12-04 00:03:00,26.0,25.0,30.00,NNE,32,0.0,0.0,96,0.00,,,0.00,VWS V14.01,2013-12-04 05:03:00,
2013-12-04 00:08:00,25.9,24.9,30.00,NNE,32,0.0,0.0,96,0.00,,,0.00,VWS V14.01,2013-12-04 05:08:00,
2013-12-04 00:14:00,25.8,24.8,30.00,NNE,32,0.0,0.0,96,0.00,,,0.00,VWS V14.01,2013-12-04 05:14:00,
2013-12-04 00:19:00,25.7,24.7,30.01,NNE,32,0.0,0.0,96,0.00,,,0.00,VWS V14.01,2013-12-04 05:19:00,
2013-12-04 00:24:00,25.6,24.6,30.01,NNE,33,0.0,0.0,96,0.00,,,0.00,VWS V14.01,2013-12-04 05:24:00,
2013-12-04 00:29:00,25.5,24.5,30.01,NNE,32,0.0,0.0,96,0.00,,,0.00,VWS V14.01,2013-12-04 05:29:00,
2013-12-04 00:34:00,25.4,24.4,30.01,NNE,32,2.0,2.0,96,0.00,,,0.00,VWS V14.01,2013-12-04 05:34:00,
2013-12-04 00:39:00,25.4,24.4,30.01,NNE,32,1.0,3.0,96,0.00,,,0.00,VWS V14.01,2013-12-04 05:39:00,
2013-12-04 00:44:00,25.4,24.4,30.01,NNE,32,0.0,3.0,96,0.00,,,0.00,VWS V14.01,2013-12-04 05:44:00,
2013-12-04 00:49:00,25.3,24.3,30.01,NNE,32,0.0,3.0,96,0.00,,,0.00,VWS V14.01,2013-12-04 05:49:00,
2013-12-04 00:54:00,25.2,24.2,30.01,NNE,32,0.0,3.0,96,0.00,,,0.00,VWS V14.01,2013-12-04 05:54:00,
2013-12-04 01:00:00,25.2,24.2,30.01,NNE,32,0.0,3.0,96,0.00,,,0.00,VWS V14.01,2013-12-04 06:00:00,
2013-12-04 01:05:00,25.2,24.2,30.01,NNE,32,0.0,0.0,96,0.00,,,0.00,VWS V14.01,2013-12-04 06:05:00,
2013-12-04 01:10:00,25.2,24.2,30.02,NNE,32,0.0,0.0,96,0.00,,,0.00,VWS V14.01,2013-12-04 06:10:00,
2013-12-04 01:15:00,25.1,24.1,30.02,NNE,32,0.0,0.0,96,0.00,,,0.00,VWS V14.01,2013-12-04 06:15:00,
2013-12-04 01:20:00,25.1,24.1,30.02,NNE,32,0.0,1.0,96,0.00,,,0.00,VWS V14.01,2013-12-04 06:20:00,
2013-12-04 01:25:00,25.0,24.0,30.02,NNE,32,0.0,2.0,96,0.00,,,0.00,VWS V14.01,2013-12-04 06:25:00,
2013-12-04 01:30:00,25.0,24.0,30.02,NNE,32,0.0,0.0,96,0.00,,,0.00,VWS V14.01,2013-12-04 06:30:00,
2013-12-04 01:35:00,24.9,23.9,30.03,NNE,32,0.0,1.0,96,0.00,,,0.00,VWS V14.01,2013-12-04 06:35:00,
2013-12-04 01:41:00,24.9,23.9,30.03,NNE,32,0.0,1.0,96,0.00,,,0.00,VWS V14.01,2013-12-04 06:41:00,
2013-12-04 01:46:00,24.9,23.9,30.03,NNE,32,1.0,1.0,96,0.00,,,0.00,VWS V14.01,2013-12-04 06:46:00,
2013-12-04 01:51:00,24.9,23.9,30.03,NNE,32,0.0,2.0,96,0.00,,,0.00,VWS V14.01,2013-12-04 06:51:00,
2013-12-04 01:56:00,24.8,23.8,30.03,NNE,32,0.0,2.0,96,0.00,,,0.00,VWS V14.01,2013-12-04 06:56:00,
2013-12-04 02:01:00,24.7,23.7,30.04,NNE,33,0.0,0.0,96,0.00,,,0.00,VWS V14.01,2013-12-04 07:01:00,
2013-12-04 02:06:00,24.7,23.7,30.04,NNE,32,2.0,2.0,96,0.00,,,0.00,VWS V14.01,2013-12-04 07:06:00,
2013-12-04 02:11:00,24.7,23.7,30.04,NNE,32,0.0,3.0,96,0.00,,,0.00,VWS V14.01,2013-12-04 07:11:00,
2013-12-04 02:16:00,24.7,23.7,30.04,NNE,33,0.0,3.0,96,0.00,,,0.00,VWS V14.01,2013-12-04 07:16:00,
2013-12-04 02:21:00,24.7,23.7,30.04,NNE,32,0.0,3.0,96,0.00,,,0.00,VWS V14.01,2013-12-04 07:21:00,
2013-12-04 02:26:00,24.7,23.7,30.04,NNE,32,2.0,3.0,96,0.00,,,0.00,VWS V14.01,2013-12-04 07:26:00,
2013-12-04 02:31:00,24.7,23.7,30.04,NNE,32,0.0,1.0,96,0.00,,,0.00,VWS V14.01,2013-12-04 07:31:00,
2013-12-04 02:37:00,24.6,23.6,30.03,NNE,32,1.0,2.0,96,0.00,,,0.00,VWS V14.01,2013-12-04 07:37:00,
2013-12-04 02:42:00,24.7,23.7,30.03,NNE,32,0.0,2.0,96,0.00,,,0.00,VWS V14.01,2013-12-04 07:42:00,
2013-12-04 02:47:00,24.7,23.7,30.03,NNE,32,0.0,2.0,96,0.00,,,0.00,VWS V14.01,2013-12-04 07:47:00,
2013-12-04 02:52:00,24.6,23.6,30.03,NNE,32,0.0,2.0,96,0.00,,,0.00,VWS V14.01,2013-12-04 07:52:00,
2013-12-04 02:57:00,24.6,23.6,30.03,NNE,32,0.0,2.0,96,0.00,,,0.00,VWS V14.01,2013-12-04 07:57:00,
2013-12-04 03:02:00,24.6,23.6,30.03,NNE,32,1.0,1.0,96,0.00,,,0.00,VWS V14.01,2013-12-04 08:02:00,
2013-12-04 03:07:00,24.6,23.6,30.02,NNE,32,0.0,1.0,96,0.00,,,0.00,VWS V14.01,2013-12-04 08:07:00,
2013-12-04 03:12:00,24.6,23.6,30.03,NNE,32,0.0,1.0,96,0.00,,,0.00,VWS V14.01,2013-12-04 08:12:00,
2013-12-04 03:17:00,24.5,23.5,30.03,NNE,32,0.0,1.0,96,0.00,,,0.00,VWS V14.01,2013-12-04 08:17:00,
2013-12-04 03:23:00,24.5,23.5,30.03,NNE,32,0.0,1.0,96,0.00,,,0.00,VWS V14.01,2013-12-04 08:23:00,
2013-12-04 03:28:00,24.6,23.6,30.03,NNE,33,0.0,1.0,96,0.00,,,0.00,VWS V14.01,2013-12-04 08:28:00,
2013-12-04 03:33:00,24.7,23.7,30.03,NNE,32,0.0,1.0,96,0.00,,,0.00,VWS V14.01,2013-12-04 08:33:00,
2013-12-04 03:38:00,24.7,23.7,30.03,NNE,32,0.0,1.0,96,0.00,,,0.00,VWS V14.01,2013-12-04 08:38:00,
2013-12-04 03:43:00,24.7,23.7,30.03,NNE,32,0.0,1.0,96,0.00,,,0.00,VWS V14.01,2013-12-04 08:43:00,
2013-12-04 03:48:00,24.7,23.7,30.03,NNE,32,0.0,2.0,96,0.00,,,0.00,VWS V14.01,2013-12-04 08:48:00,
2013-12-04 03:53:00,24.6,23.6,30.03,NNE,32,0.0,2.0,96,0.00,,,0.00,VWS V14.01,2013-12-04 08:53:00,
2013-12-04 03:58:00,24.6,23.6,30.03,NNE,32,0.0,2.0,96,0.00,,,0.00,VWS V14.01,2013-12-04 08:58:00,
2013-12-04 04:03:00,24.5,23.5,30.03,NNE,32,0.0,0.0,96,0.00,,,0.00,VWS V14.01,2013-12-04 09:03:00,
2013-12-04 04:09:00,24.5,23.5,30.03,NNE,32,0.0,1.0,96,0.00,,,0.00,VWS V14.01,2013-12-04 09:09:00,
2013-12-04 04:14:00,24.5,23.5,30.03,NNE,32,0.0,1.0,96,0.00,,,0.00,VWS V14.01,2013-12-04 09:14:00,
2013-12-04 04:19:00,24.5,23.5,30.03,NNE,33,0.0,1.0,96,0.00,,,0.00,VWS V14.01,2013-12-04 09:19:00,
2013-12-04 04:24:00,24.5,23.5,30.04,NNE,32,0.0,1.0,96,0.00,,,0.00,VWS V14.01,2013-12-04 09:24:00,
2013-12-04 04:29:00,24.4,23.4,30.04,NNE,33,0.0,1.0,96,0.00,,,0.00,VWS V14.01,2013-12-04 09:29:00,
2013-12-04 04:34:00,24.4,23.4,30.05,NNE,32,0.0,0.0,96,0.00,,,0.00,VWS V14.01,2013-12-04 09:34:00,
2013-12-04 04:39:00,24.4,23.4,30.05,NNE,32,0.0,0.0,96,0.00,,,0.00,VWS V14.01,2013-12-04 09:39:00,
2013-12-04 04:44:00,24.4,23.4,30.05,NNE,32,0.0,1.0,96,0.00,,,0.00,VWS V14.01,2013-12-04 09:44:00,
2013-12-04 04:49:00,24.4,23.4,30.05,NNE,32,0.0,1.0,96,0.00,,,0.00,VWS V14.01,2013-12-04 09:49:00,
2013-12-04 04:55:00,24.4,23.4,30.06,NNE,32,0.0,1.0,96,0.00,,,0.00,VWS V14.01,2013-12-04 09:55:00,
2013-12-04 05:00:00,24.4,23.4,30.06,NNE,32,0.0,1.0,96,0.00,,,0.00,VWS V14.01,2013-12-04 10:00:00,
2013-12-04 05:05:00,24.3,23.3,30.06,NNE,32,0.0,0.0,96,0.00,,,0.00,VWS V14.01,2013-12-04 10:05:00,
2013-12-04 05:10:00,24.3,23.3,30.06,NNE,32,0.0,0.0,96,0.00,,,0.00,VWS V14.01,2013-12-04 10:10:00,
2013-12-04 05:15:00,24.3,23.3,30.06,NNE,32,0.0,0.0,96,0.00,,,0.00,VWS V14.01,2013-12-04 10:15:00,
2013-12-04 05:20:00,24.3,23.3,30.06,NNE,32,0.0,0.0,96,0.00,,,0.00,VWS V14.01,2013-12-04 10:20:00,
2013-12-04 05:25:00,24.3,23.3,30.06,NNE,32,0.0,0.0,96,0.00,,,0.00,VWS V14.01,2013-12-04 10:25:00,
2013-12-04 05:30:00,24.4,23.4,30.06,NNE,32,0.0,0.0,96,0.00,,,0.00,VWS V14.01,2013-12-04 10:30:00,
2013-12-04 05:35:00,24.4,23.4,30.07,NNE,33,0.0,0.0,96,0.00,,,0.00,VWS V14.01,2013-12-04 10:35:00,
2013-12-04 05:41:00,24.4,23.4,30.07,NNE,32,0.0,0.0,96,0.00,,,0.00,VWS V14.01,2013-12-04 10:41:00,
2013-12-04 05:46:00,24.4,23.4,30.08,NNE,32,0.0,0.0,96,0.00,,,0.00,VWS V14.01,2013-12-04 10:46:00,
2013-12-04 05:51:00,24.3,23.3,30.08,NNE,32,0.0,0.0,96,0.00,,,0.00,VWS V14.01,2013-12-04 10:51:00,
2013-12-04 05:56:00,24.4,23.4,30.08,NNE,33,0.0,0.0,96,0.00,,,0.00,VWS V14.01,2013-12-04 10:56:00,
2013-12-04 06:01:00,24.5,23.5,30.09,NNE,32,0.0,0.0,96,0.00,,,0.00,VWS V14.01,2013-12-04 11:01:00,
2013-12-04 06:06:00,24.6,23.6,30.09,NNE,32,0.0,1.0,96,0.00,,,0.00,VWS V14.01,2013-12-04 11:06:00,
2013-12-04 06:11:00,24.6,23.6,30.09,NNE,32,1.0,1.0,96,0.00,,,0.00,VWS V14.01,2013-12-04 11:11:00,
2013-12-04 06:16:00,24.7,23.7,30.09,NNE,32,0.0,2.0,96,0.00,,,0.00,VWS V14.01,2013-12-04 11:16:00,
2013-12-04 06:21:00,24.9,24.2,30.09,NNE,32,0.0,2.0,97,0.00,,,0.00,VWS V14.01,2013-12-04 11:21:00,
2013-12-04 06:27:00,25.0,24.3,30.09,NNE,33,0.0,2.0,97,0.00,,,0.00,VWS V14.01,2013-12-04 11:27:00,
2013-12-04 06:32:00,25.0,24.3,30.09,NNE,32,0.0,0.0,97,0.00,,,0.00,VWS V14.01,2013-12-04 11:32:00,
2013-12-04 06:37:00,25.1,24.4,30.10,NNE,32,0.0,0.0,97,0.00,,,0.00,VWS V14.01,2013-12-04 11:37:00,
2013-12-04 06:42:00,25.2,24.5,30.10,NNE,32,0.0,0.0,97,0.00,,,0.00,VWS V14.01,2013-12-04 11:42:00,
2013-12-04 06:47:00,25.2,24.5,30.10,NNE,32,0.0,0.0,97,0.00,,,0.00,VWS V14.01,2013-12-04 11:47:00,
2013-12-04 06:52:00,25.3,24.6,30.10,NNE,32,0.0,0.0,97,0.00,,,0.00,VWS V14.01,2013-12-04 11:52:00,
2013-12-04 06:57:00,25.4,24.7,30.10,NNE,33,0.0,0.0,97,0.00,,,0.00,VWS V14.01,2013-12-04 11:57:00,
2013-12-04 07:02:00,25.5,24.8,30.10,NNE,33,0.0,0.0,97,0.00,,,0.00,VWS V14.01,2013-12-04 12:02:00,
2013-12-04 07:07:00,25.6,24.9,30.10,NNE,32,0.0,1.0,97,0.00,,,0.00,VWS V14.01,2013-12-04 12:07:00,
2013-12-04 07:12:00,25.7,25.0,30.10,NNE,32,0.0,1.0,97,0.00,,,0.00,VWS V14.01,2013-12-04 12:12:00,
2013-12-04 07:18:00,25.8,25.1,30.10,NNE,32,0.0,1.0,97,0.00,,,0.00,VWS V14.01,2013-12-04 12:18:00,
2013-12-04 07:23:00,25.9,25.2,30.10,NNE,33,0.0,1.0,97,0.00,,,0.00,VWS V14.01,2013-12-04 12:23:00,
2013-12-04 07:28:00,26.1,25.4,30.10,NNE,33,1.0,1.0,97,0.00,,,0.00,VWS V14.01,2013-12-04 12:28:00,
2013-12-04 07:33:00,26.2,25.5,30.10,NNE,32,0.0,0.0,97,0.00,,,0.00,VWS V14.01,2013-12-04 12:33:00,
2013-12-04 07:38:00,26.3,25.6,30.10,NNE,33,0.0,0.0,97,0.00,,,0.00,VWS V14.01,2013-12-04 12:38:00,
2013-12-04 07:43:00,26.5,25.8,30.11,NNE,32,0.0,0.0,97,0.00,,,0.00,VWS V14.01,2013-12-04 12:43:00,
2013-12-04 07:48:00,26.6,25.9,30.10,NNE,33,0.0,0.0,97,0.00,,,0.00,VWS V14.01,2013-12-04 12:48:00,
2013-12-04 07:53:00,26.7,26.0,30.11,NNE,33,0.0,0.0,97,0.00,,,0.00,VWS V14.01,2013-12-04 12:53:00,
2013-12-04 07:58:00,26.9,26.2,30.11,NNE,33,0.0,0.0,97,0.00,,,0.00,VWS V14.01,2013-12-04 12:58:00,
2013-12-04 08:04:00,27.2,26.5,30.11,NNE,32,0.0,0.0,97,0.00,,,0.00,VWS V14.01,2013-12-04 13:04:00,
2013-12-04 08:09:00,27.4,26.7,30.11,NNE,32,0.0,0.0,97,0.00,,,0.00,VWS V14.01,2013-12-04 13:09:00,
2013-12-04 08:14:00,27.7,27.0,30.11,NNE,33,0.0,0.0,97,0.00,,,0.00,VWS V14.01,2013-12-04 13:14:00,
2013-12-04 08:19:00,28.0,27.3,30.11,NNE,33,0.0,1.0,97,0.00,,,0.00,VWS V14.01,2013-12-04 13:19:00,
2013-12-04 08:24:00,28.1,27.6,30.11,NNE,33,0.0,1.0,98,0.00,,,0.00,VWS V14.01,2013-12-04 13:24:00,
2013-12-04 08:29:00,28.3,27.6,30.11,NNE,32,0.0,1.0,97,0.00,,,0.00,VWS V14.01,2013-12-04 13:29:00,
2013-12-04 08:34:00,28.5,27.8,30.10,NNE,33,0.0,0.0,97,0.00,,,0.00,VWS V14.01,2013-12-04 13:34:00,
2013-12-04 08:39:00,28.7,28.2,30.10,NNE,32,0.0,0.0,98,0.00,,,0.00,VWS V14.01,2013-12-04 13:39:00,
2013-12-04 08:44:00,29.0,28.3,30.10,NNE,32,0.0,0.0,97,0.00,,,0.00,VWS V14.01,2013-12-04 13:44:00,
2013-12-04 08:50:00,29.2,28.7,30.09,NNE,33,0.0,1.0,98,0.00,,,0.00,VWS V14.01,2013-12-04 13:50:00,
2013-12-04 08:55:00,29.6,29.1,30.09,NNE,32,0.0,1.0,98,0.00,,,0.00,VWS V14.01,2013-12-04 13:55:00,
2013-12-04 09:00:00,29.9,29.4,30.08,NNE,33,0.0,1.0,98,0.00,,,0.00,VWS V14.01,2013-12-04 14:00:00,
2013-12-04 09:05:00,30.3,29.8,30.09,NNE,33,0.0,0.0,98,0.00,,,0.00,VWS V14.01,2013-12-04 14:05:00,
2013-12-04 09:10:00,30.7,30.2,30.09,NNE,32,0.0,1.0,98,0.00,,,0.00,VWS V14.01,2013-12-04 14:10:00,
2013-12-04 09:15:00,31.1,30.6,30.10,NNE,32,2.0,2.0,98,0.00,,,0.00,VWS V14.01,2013-12-04 14:15:00,
2013-12-04 09:20:00,31.2,30.7,30.10,NNE,32,0.0,2.0,98,0.01,,,0.01,VWS V14.01,2013-12-04 14:20:00,
2013-12-04 09:25:00,31.4,30.9,30.10,NNE,33,0.0,2.0,98,0.01,,,0.01,VWS V14.01,2013-12-04 14:25:00,
2013-12-04 09:30:00,31.6,30.9,30.10,SW,227,0.0,2.0,97,0.01,,,0.01,VWS V14.01,2013-12-04 14:30:00,
2013-12-04 09:36:00,31.7,31.0,30.11,SW,215,1.0,5.0,97,0.01,,,0.01,VWS V14.01,2013-12-04 14:36:00,
2013-12-04 09:41:00,31.9,31.1,30.11,SW,215,1.0,5.0,97,0.01,,,0.01,VWS V14.01,2013-12-04 14:41:00,
2013-12-04 09:46:00,32.3,31.3,30.11,SW,225,2.0,5.0,96,0.01,,,0.01,VWS V14.01,2013-12-04 14:46:00,
2013-12-04 09:51:00,32.6,31.6,30.12,SW,225,0.0,5.0,96,0.01,,,0.01,VWS V14.01,2013-12-04 14:51:00,
2013-12-04 09:56:00,33.0,32.0,30.12,SW,225,0.0,5.0,96,0.01,,,0.01,VWS V14.01,2013-12-04 14:56:00,
2013-12-04 10:01:00,33.8,32.8,30.12,SSW,208,0.0,2.0,96,0.01,,,0.01,VWS V14.01,2013-12-04 15:01:00,
2013-12-04 10:06:00,34.4,33.1,30.12,SSW,208,1.0,3.0,95,0.01,,,0.01,VWS V14.01,2013-12-04 15:06:00,
2013-12-04 10:11:00,35.2,33.4,30.12,SSW,208,0.0,3.0,93,0.01,,,0.01,VWS V14.01,2013-12-04 15:11:00,
2013-12-04 10:16:00,35.7,33.6,30.11,SSW,208,0.0,3.0,92,0.01,,,0.01,VWS V14.01,2013-12-04 15:16:00,
2013-12-04 10:22:00,36.3,33.7,30.11,SSW,208,0.0,3.0,90,0.01,,,0.01,VWS V14.01,2013-12-04 15:22:00,
2013-12-04 10:27:00,36.9,34.0,30.10,North,355,1.0,3.0,89,0.01,,,0.01,VWS V14.01,2013-12-04 15:27:00,
2013-12-04 10:32:00,37.6,34.4,30.10,North,355,2.0,2.0,88,0.00,,,0.01,VWS V14.01,2013-12-04 15:32:00,
2013-12-04 10:37:00,38.3,34.5,30.10,North,355,0.0,2.0,86,0.00,,,0.01,VWS V14.01,2013-12-04 15:37:00,
2013-12-04 10:42:00,39.1,34.7,30.10,North,355,0.0,2.0,84,0.00,,,0.01,VWS V14.01,2013-12-04 15:42:00,
2013-12-04 10:47:00,40.0,35.0,30.10,North,355,0.0,2.0,82,0.00,,,0.01,VWS V14.01,2013-12-04 15:47:00,
2013-12-04 10:52:00,40.9,35.2,30.10,North,355,2.0,2.0,80,0.00,,,0.01,VWS V14.01,2013-12-04 15:52:00,
2013-12-04 10:57:00,41.9,35.2,30.10,North,5,0.0,2.0,77,0.00,,,0.01,VWS V14.01,2013-12-04 15:57:00,
2013-12-04 11:02:00,42.8,36.1,30.10,North,5,1.0,2.0,77,0.00,,,0.01,VWS V14.01,2013-12-04 16:02:00,
2013-12-04 11:07:00,43.6,35.5,30.10,South,182,1.0,3.0,73,0.00,,,0.01,VWS V14.01,2013-12-04 16:07:00,
2013-12-04 11:13:00,44.1,35.7,30.10,SSW,198,0.0,3.0,72,0.00,,,0.01,VWS V14.01,2013-12-04 16:13:00,
2013-12-04 11:18:00,44.6,35.1,30.10,SW,227,3.0,4.0,69,0.00,,,0.01,VWS V14.01,2013-12-04 16:18:00,
2013-12-04 11:23:00,44.7,34.8,30.10,SW,214,0.0,5.0,68,0.00,,,0.01,VWS V14.01,2013-12-04 16:23:00,
2013-12-04 11:28:00,44.9,35.0,30.11,SSW,203,2.0,6.0,68,0.00,,,0.01,VWS V14.01,2013-12-04 16:28:00,
2013-12-04 11:33:00,45.0,35.5,30.11,SSW,200,1.0,6.0,69,0.00,,,0.01,VWS V14.01,2013-12-04 16:33:00,
2013-12-04 11:38:00,44.9,35.0,30.11,SSW,195,1.0,6.0,68,0.00,,,0.01,VWS V14.01,2013-12-04 16:38:00,
2013-12-04 11:43:00,44.8,34.9,30.12,SW,228,5.0,6.0,68,0.00,,,0.01,VWS V14.01,2013-12-04 16:43:00,
2013-12-04 11:48:00,45.1,34.4,30.11,SW,217,1.0,6.0,66,0.00,,,0.01,VWS V14.01,2013-12-04 16:48:00,
2013-12-04 11:53:00,45.2,35.3,30.11,SW,221,4.0,6.0,68,0.00,,,0.01,VWS V14.01,2013-12-04 16:53:00,
2013-12-04 11:58:00,45.5,35.2,30.11,SSE,152,1.0,6.0,67,0.00,,,0.01,VWS V14.01,2013-12-04 16:58:00,
2013-12-04 12:04:00,45.8,35.1,30.11,ESE,120,4.0,5.0,66,0.00,,,0.01,VWS V14.01,2013-12-04 17:04:00,
2013-12-04 12:09:00,45.9,34.8,30.11,South,184,3.0,7.0,65,0.00,,,0.01,VWS V14.01,2013-12-04 17:09:00,
2013-12-04 12:14:00,46.0,34.1,30.12,WSW,246,2.0,7.0,63,0.00,,,0.01,VWS V14.01,2013-12-04 17:14:00,
2013-12-04 12:19:00,46.0,33.7,30.11,SW,223,0.0,7.0,62,0.00,,,0.01,VWS V14.01,2013-12-04 17:19:00,
2013-12-04 12:24:00,46.2,33.9,30.11,SSW,209,1.0,7.0,62,0.00,,,0.01,VWS V14.01,2013-12-04 17:24:00,
2013-12-04 12:29:00,46.4,34.5,30.10,SSW,201,3.0,7.0,63,0.00,,,0.01,VWS V14.01,2013-12-04 17:29:00,
2013-12-04 12:34:00,46.7,34.4,30.10,SSW,200,2.0,6.0,62,0.00,,,0.01,VWS V14.01,2013-12-04 17:34:00,
2013-12-04 12:39:00,47.1,34.8,30.09,SSE,161,2.0,6.0,62,0.00,,,0.01,VWS V14.01,2013-12-04 17:39:00,
2013-12-04 12:44:00,47.4,35.0,30.09,SW,230,3.0,6.0,62,0.00,,,0.01,VWS V14.01,2013-12-04 17:44:00,
2013-12-04 12:49:00,47.8,35.0,30.09,SW,235,2.0,6.0,61,0.00,,,0.01,VWS V14.01,2013-12-04 17:49:00,
2013-12-04 12:55:00,48.3,35.5,30.09,SW,232,3.0,6.0,61,0.00,,,0.01,VWS V14.01,2013-12-04 17:55:00,
2013-12-04 13:00:00,48.6,34.9,30.09,SSW,197,0.0,6.0,59,0.00,,,0.01,VWS V14.01,2013-12-04 18:00:00,
2013-12-04 13:05:00,48.7,35.5,30.08,SW,221,2.0,4.0,60,0.00,,,0.01,VWS V14.01,2013-12-04 18:05:00,
2013-12-04 13:10:00,49.0,35.7,30.08,SW,214,3.0,5.0,60,0.00,,,0.01,VWS V14.01,2013-12-04 18:10:00,
2013-12-04 13:15:00,49.4,36.1,30.08,SW,218,2.0,5.0,60,0.00,,,0.01,VWS V14.01,2013-12-04 18:15:00,
2013-12-04 13:20:00,49.6,36.3,30.08,SSW,209,0.0,5.0,60,0.00,,,0.01,VWS V14.01,2013-12-04 18:20:00,
2013-12-04 13:25:00,49.8,36.1,30.08,SSW,209,1.0,5.0,59,0.00,,,0.01,VWS V14.01,2013-12-04 18:25:00,
2013-12-04 13:30:00,49.8,36.5,30.08,East,86,0.0,0.0,60,0.00,,,0.01,VWS V14.01,2013-12-04 18:30:00,
2013-12-04 13:35:00,49.9,36.6,30.08,SE,144,1.0,3.0,60,0.00,,,0.01,VWS V14.01,2013-12-04 18:35:00,
2013-12-04 13:41:00,49.9,36.2,30.07,WSW,246,3.0,7.0,59,0.00,,,0.01,VWS V14.01,2013-12-04 18:41:00,
2013-12-04 13:46:00,50.0,37.5,30.07,West,261,1.0,7.0,62,0.00,,,0.01,VWS V14.01,2013-12-04 18:46:00,
2013-12-04 13:51:00,50.2,36.4,30.07,West,268,1.0,7.0,59,0.00,,,0.01,VWS V14.01,2013-12-04 18:51:00,
2013-12-04 13:56:00,50.4,37.0,30.07,SSW,212,2.0,7.0,60,0.00,,,0.01,VWS V14.01,2013-12-04 18:56:00,
2013-12-04 14:01:00,50.5,36.7,30.07,SW,233,0.0,1.0,59,0.00,,,0.01,VWS V14.01,2013-12-04 19:01:00,
2013-12-04 14:06:00,50.7,37.3,30.07,WSW,238,1.0,3.0,60,0.00,,,0.01,VWS V14.01,2013-12-04 19:06:00,
2013-12-04 14:11:00,50.7,36.9,30.07,SW,219,2.0,3.0,59,0.00,,,0.01,VWS V14.01,2013-12-04 19:11:00,
2013-12-04 14:16:00,50.6,36.8,30.08,SSW,213,0.0,3.0,59,0.00,,,0.01,VWS V14.01,2013-12-04 19:16:00,
2013-12-04 14:21:00,50.6,36.8,30.08,West,279,0.0,3.0,59,0.00,,,0.01,VWS V14.01,2013-12-04 19:21:00,
2013-12-04 14:26:00,50.5,37.6,30.08,West,279,1.0,3.0,61,0.00,,,0.01,VWS V14.01,2013-12-04 19:26:00,
2013-12-04 14:32:00,50.4,36.6,30.08,West,279,1.0,1.0,59,0.00,,,0.01,VWS V14.01,2013-12-04 19:32:00,
2013-12-04 14:37:00,50.4,36.6,30.08,West,279,0.0,2.0,59,0.00,,,0.01,VWS V14.01,2013-12-04 19:37:00,
2013-12-04 14:42:00,50.3,36.5,30.08,West,279,0.0,2.0,59,0.00,,,0.01,VWS V14.01,2013-12-04 19:42:00,
2013-12-04 14:47:00,50.1,36.3,30.08,West,276,0.0,2.0,59,0.00,,,0.01,VWS V14.01,2013-12-04 19:47:00,
2013-12-04 14:52:00,49.9,36.6,30.08,West,275,0.0,2.0,60,0.00,,,0.01,VWS V14.01,2013-12-04 19:52:00,
2013-12-04 14:57:00,49.9,37.0,30.09,West,275,0.0,2.0,61,0.00,,,0.01,VWS V14.01,2013-12-04 19:57:00,
2013-12-04 15:02:00,50.0,36.7,30.09,West,275,0.0,1.0,60,0.00,,,0.01,VWS V14.01,2013-12-04 20:02:00,
2013-12-04 15:07:00,50.0,36.7,30.09,West,275,0.0,1.0,60,0.00,,,0.01,VWS V14.01,2013-12-04 20:07:00,
2013-12-04 15:12:00,50.1,36.8,30.08,West,275,0.0,1.0,60,0.00,,,0.01,VWS V14.01,2013-12-04 20:12:00,
2013-12-04 15:17:00,50.0,36.2,30.09,West,273,1.0,2.0,59,0.00,,,0.01,VWS V14.01,2013-12-04 20:17:00,
2013-12-04 15:22:00,49.7,36.4,30.09,West,273,0.0,2.0,60,0.00,,,0.01,VWS V14.01,2013-12-04 20:22:00,
2013-12-04 15:27:00,49.4,37.3,30.09,West,273,0.0,2.0,63,0.00,,,0.01,VWS V14.01,2013-12-04 20:27:00,
2013-12-04 15:33:00,49.0,37.0,30.10,West,273,0.0,0.0,63,0.00,,,0.01,VWS V14.01,2013-12-04 20:33:00,
2013-12-04 15:38:00,48.5,36.9,30.10,West,273,0.0,1.0,64,0.00,,,0.01,VWS V14.01,2013-12-04 20:38:00,
2013-12-04 15:43:00,47.8,36.6,30.10,West,273,0.0,1.0,65,0.00,,,0.01,VWS V14.01,2013-12-04 20:43:00,
2013-12-04 15:48:00,47.3,36.5,30.10,West,273,0.0,1.0,66,0.00,,,0.01,VWS V14.01,2013-12-04 20:48:00,
2013-12-04 15:53:00,46.7,36.3,30.10,West,273,0.0,1.0,67,0.00,,,0.01,VWS V14.01,2013-12-04 20:53:00,
2013-12-04 15:58:00,46.0,36.4,30.10,West,273,0.0,1.0,69,0.00,,,0.01,VWS V14.01,2013-12-04 20:58:00,
2013-12-04 16:03:00,45.4,36.2,30.10,West,273,0.0,1.0,70,0.00,,,0.01,VWS V14.01,2013-12-04 21:03:00,
2013-12-04 16:08:00,45.0,36.2,30.10,West,273,1.0,2.0,71,0.00,,,0.01,VWS V14.01,2013-12-04 21:08:00,
2013-12-04 16:13:00,44.7,36.2,30.09,West,273,0.0,2.0,72,0.00,,,0.01,VWS V14.01,2013-12-04 21:13:00,
2013-12-04 16:18:00,44.2,36.5,30.09,West,273,0.0,2.0,74,0.00,,,0.01,VWS V14.01,2013-12-04 21:18:00,
2013-12-04 16:23:00,43.8,36.4,30.10,West,273,0.0,2.0,75,0.00,,,0.01,VWS V14.01,2013-12-04 21:23:00,
2013-12-04 16:29:00,43.6,36.2,30.10,West,273,0.0,2.0,75,0.00,,,0.01,VWS V14.01,2013-12-04 21:29:00,
2013-12-04 16:34:00,43.1,36.1,30.10,West,273,0.0,2.0,76,0.00,,,0.01,VWS V14.01,2013-12-04 21:34:00,
2013-12-04 16:39:00,42.5,35.8,30.10,West,273,1.0,2.0,77,0.00,,,0.01,VWS V14.01,2013-12-04 21:39:00,
2013-12-04 16:44:00,41.9,35.5,30.10,West,273,1.0,2.0,78,0.00,,,0.01,VWS V14.01,2013-12-04 21:44:00,
2013-12-04 16:49:00,41.5,35.5,30.10,West,273,0.0,2.0,79,0.00,,,0.01,VWS V14.01,2013-12-04 21:49:00,
2013-12-04 16:54:00,41.1,35.4,30.10,West,273,0.0,2.0,80,0.00,,,0.01,VWS V14.01,2013-12-04 21:54:00,
2013-12-04 16:59:00,40.6,35.2,30.11,West,273,1.0,2.0,81,0.00,,,0.01,VWS V14.01,2013-12-04 21:59:00,
2013-12-04 17:04:00,40.0,35.0,30.11,West,273,0.0,1.0,82,0.00,,,0.01,VWS V14.01,2013-12-04 22:04:00,
2013-12-04 17:09:00,39.6,34.9,30.11,West,273,0.0,1.0,83,0.00,,,0.01,VWS V14.01,2013-12-04 22:09:00,
2013-12-04 17:14:00,39.1,34.7,30.11,West,273,1.0,2.0,84,0.00,,,0.01,VWS V14.01,2013-12-04 22:14:00,
2013-12-04 17:19:00,38.7,34.3,30.12,NW,321,2.0,3.0,84,0.00,,,0.01,VWS V14.01,2013-12-04 22:19:00,
2013-12-04 17:24:00,38.3,34.2,30.12,NNE,28,2.0,3.0,85,0.00,,,0.01,VWS V14.01,2013-12-04 22:24:00,
2013-12-04 17:30:00,37.9,33.8,30.12,NNE,28,0.0,3.0,85,0.00,,,0.01,VWS V14.01,2013-12-04 22:30:00,
2013-12-04 17:35:00,37.6,33.8,30.12,NNE,28,1.0,2.0,86,0.00,,,0.01,VWS V14.01,2013-12-04 22:35:00,
2013-12-04 17:40:00,37.3,33.5,30.13,NNE,28,1.0,3.0,86,0.00,,,0.01,VWS V14.01,2013-12-04 22:40:00,
2013-12-04 17:45:00,37.0,33.5,30.13,NNE,28,2.0,3.0,87,0.00,,,0.01,VWS V14.01,2013-12-04 22:45:00,
2013-12-04 17:50:00,36.7,33.2,30.13,NNE,28,0.0,3.0,87,0.00,,,0.01,VWS V14.01,2013-12-04 22:50:00,
2013-12-04 17:55:00,36.4,33.2,30.13,NNE,28,0.0,3.0,88,0.00,,,0.01,VWS V14.01,2013-12-04 22:55:00,
2013-12-04 18:00:00,36.1,32.9,30.13,NNE,28,0.0,0.0,88,0.00,,,0.01,VWS V14.01,2013-12-04 23:00:00,
2013-12-04 18:05:00,35.8,32.9,30.13,NNE,28,2.0,2.0,89,0.00,,,0.01,VWS V14.01,2013-12-04 23:05:00,
2013-12-04 18:10:00,35.6,32.7,30.14,NNE,28,0.0,2.0,89,0.00,,,0.01,VWS V14.01,2013-12-04 23:10:00,
2013-12-04 18:15:00,35.3,32.4,30.14,NNE,28,1.0,2.0,89,0.00,,,0.01,VWS V14.01,2013-12-04 23:15:00,
2013-12-04 18:20:00,35.1,32.5,30.14,NNE,28,0.0,2.0,90,0.00,,,0.01,VWS V14.01,2013-12-04 23:20:00,
2013-12-04 18:26:00,35.0,32.4,30.14,NNE,28,2.0,2.0,90,0.00,,,0.01,VWS V14.01,2013-12-04 23:26:00,
2013-12-04 18:31:00,34.9,32.5,30.14,NNE,28,1.0,1.0,91,0.00,,,0.01,VWS V14.01,2013-12-04 23:31:00,
2013-12-04 18:36:00,35.0,32.6,30.14,NNE,28,2.0,3.0,91,0.00,,,0.01,VWS V14.01,2013-12-04 23:36:00,
2013-12-04 18:41:00,35.2,32.8,30.14,NNE,28,1.0,3.0,91,0.00,,,0.01,VWS V14.01,2013-12-04 23:41:00,
2013-12-04 18:46:00,35.2,32.8,30.14,NNE,28,1.0,3.0,91,0.00,,,0.01,VWS V14.01,2013-12-04 23:46:00,
2013-12-04 18:51:00,35.1,32.7,30.14,NNE,28,2.0,3.0,91,0.00,,,0.01,VWS V14.01,2013-12-04 23:51:00,
2013-12-04 18:56:00,35.2,32.8,30.14,NNE,28,2.0,3.0,91,0.00,,,0.01,VWS V14.01,2013-12-04 23:56:00,
2013-12-04 19:01:00,35.2,32.8,30.15,NNE,28,0.0,2.0,91,0.00,,,0.01,VWS V14.01,2013-12-05 00:01:00,
2013-12-04 19:06:00,35.1,32.7,30.15,NNE,30,0.0,3.0,91,0.00,,,0.01,VWS V14.01,2013-12-05 00:06:00,
2013-12-04 19:11:00,35.1,32.7,30.14,NE,38,1.0,3.0,91,0.00,,,0.01,VWS V14.01,2013-12-05 00:11:00,
2013-12-04 19:16:00,35.1,32.7,30.14,NE,38,0.0,3.0,91,0.00,,,0.01,VWS V14.01,2013-12-05 00:16:00,
2013-12-04 19:22:00,35.1,32.7,30.14,NE,38,1.0,3.0,91,0.00,,,0.01,VWS V14.01,2013-12-05 00:22:00,
2013-12-04 19:27:00,34.9,32.5,30.14,NE,38,1.0,3.0,91,0.00,,,0.01,VWS V14.01,2013-12-05 00:27:00,
2013-12-04 19:32:00,34.7,32.3,30.15,NE,38,1.0,2.0,91,0.00,,,0.01,VWS V14.01,2013-12-05 00:32:00,
2013-12-04 19:37:00,34.6,32.2,30.15,NE,38,0.0,3.0,91,0.00,,,0.01,VWS V14.01,2013-12-05 00:37:00,
2013-12-04 19:42:00,34.3,32.0,30.15,NE,38,2.0,3.0,91,0.00,,,0.01,VWS V14.01,2013-12-05 00:42:00,
2013-12-04 19:47:00,34.2,32.1,30.15,NE,38,1.0,3.0,92,0.00,,,0.01,VWS V14.01,2013-12-05 00:47:00,
2013-12-04 19:52:00,34.1,32.0,30.15,NE,38,1.0,3.0,92,0.00,,,0.01,VWS V14.01,2013-12-05 00:52:00,
2013-12-04 19:57:00,34.0,31.9,30.15,NE,38,2.0,3.0,92,0.00,,,0.01,VWS V14.01,2013-12-05 00:57:00,
2013-12-04 20:02:00,33.9,31.8,30.15,NE,38,3.0,3.0,92,0.00,,,0.01,VWS V14.01,2013-12-05 01:02:00,
2013-12-04 20:07:00,33.7,31.6,30.15,NE,38,2.0,3.0,92,0.00,,,0.01,VWS V14.01,2013-12-05 01:07:00,
2013-12-04 20:12:00,33.6,31.8,30.15,NE,38,2.0,4.0,93,0.00,,,0.01,VWS V14.01,2013-12-05 01:12:00,
2013-12-04 20:17:00,33.4,31.3,30.15,NE,38,2.0,4.0,92,0.00,,,0.01,VWS V14.01,2013-12-05 01:17:00,
2013-12-04 20:22:00,33.3,31.5,30.15,NE,38,0.0,4.0,93,0.00,,,0.01,VWS V14.01,2013-12-05 01:22:00,
2013-12-04 20:27:00,33.0,31.2,30.15,NE,38,2.0,4.0,93,0.00,,,0.01,VWS V14.01,2013-12-05 01:27:00,
2013-12-04 20:32:00,32.8,31.0,30.15,NE,38,2.0,3.0,93,0.00,,,0.01,VWS V14.01,2013-12-05 01:32:00,
2013-12-04 20:37:00,32.7,30.9,30.15,NE,38,0.0,3.0,93,0.00,,,0.01,VWS V14.01,2013-12-05 01:37:00,
2013-12-04 20:43:00,32.5,30.7,30.15,NE,38,1.0,3.0,93,0.00,,,0.01,VWS V14.01,2013-12-05 01:43:00,
2013-12-04 20:48:00,32.4,30.9,30.15,NE,38,2.0,3.0,94,0.00,,,0.01,VWS V14.01,2013-12-05 01:48:00,
2013-12-04 20:53:00,32.4,30.9,30.15,NE,38,1.0,3.0,94,0.00,,,0.01,VWS V14.01,2013-12-05 01:53:00,
2013-12-04 20:58:00,32.5,31.0,30.15,NE,38,2.0,3.0,94,0.00,,,0.01,VWS V14.01,2013-12-05 01:58:00,
2013-12-04 21:03:00,32.7,31.4,30.15,NE,38,1.0,3.0,95,0.00,,,0.01,VWS V14.01,2013-12-05 02:03:00,
2013-12-04 21:08:00,33.0,31.7,30.15,NE,38,1.0,3.0,95,0.00,,,0.01,VWS V14.01,2013-12-05 02:08:00,
2013-12-04 21:13:00,33.2,31.9,30.15,NE,38,2.0,3.0,95,0.00,,,0.01,VWS V14.01,2013-12-05 02:13:00,
2013-12-04 21:18:00,33.5,32.2,30.15,NE,38,1.0,3.0,95,0.00,,,0.01,VWS V14.01,2013-12-05 02:18:00,
2013-12-04 21:23:00,34.0,32.7,30.15,NE,38,3.0,3.0,95,0.00,,,0.01,VWS V14.01,2013-12-05 02:23:00,
2013-12-04 21:28:00,34.4,33.1,30.15,NE,38,2.0,3.0,95,0.00,,,0.01,VWS V14.01,2013-12-05 02:28:00,
2013-12-04 21:33:00,34.7,33.4,30.15,NE,38,1.0,3.0,95,0.00,,,0.01,VWS V14.01,2013-12-05 02:33:00,
2013-12-04 21:38:00,35.0,33.5,30.15,NNE,22,3.0,3.0,94,0.00,,,0.01,VWS V14.01,2013-12-05 02:38:00,
2013-12-04 21:43:00,35.3,33.8,30.15,NNE,30,2.0,3.0,94,0.00,,,0.01,VWS V14.01,2013-12-05 02:43:00,
2013-12-04 21:48:00,35.6,34.0,30.15,NNE,30,2.0,3.0,94,0.00,,,0.01,VWS V14.01,2013-12-05 02:48:00,
2013-12-04 21:53:00,35.8,34.0,30.15,NNE,30,1.0,3.0,93,0.00,,,0.01,VWS V14.01,2013-12-05 02:53:00,
2013-12-04 21:59:00,36.0,34.2,30.15,NNE,30,1.0,3.0,93,0.00,,,0.01,VWS V14.01,2013-12-05 02:59:00,
2013-12-04 22:04:00,36.1,34.0,30.15,NNE,30,3.0,3.0,92,0.00,,,0.01,VWS V14.01,2013-12-05 03:04:00,
2013-12-04 22:09:00,36.3,34.2,30.15,NNE,28,1.0,3.0,92,0.00,,,0.01,VWS V14.01,2013-12-05 03:09:00,
2013-12-04 22:14:00,36.5,34.4,30.15,NE,55,1.0,3.0,92,0.00,,,0.01,VWS V14.01,2013-12-05 03:14:00,
2013-12-04 22:19:00,36.6,34.5,30.15,NE,55,1.0,3.0,92,0.00,,,0.01,VWS V14.01,2013-12-05 03:19:00,
2013-12-04 22:24:00,36.8,34.7,30.16,NE,55,0.0,3.0,92,0.00,,,0.01,VWS V14.01,2013-12-05 03:24:00,
2013-12-04 22:29:00,36.9,34.8,30.16,NE,55,1.0,3.0,92,0.00,,,0.01,VWS V14.01,2013-12-05 03:29:00,
2013-12-04 22:34:00,37.0,34.6,30.16,NE,55,2.0,2.0,91,0.00,,,0.01,VWS V14.01,2013-12-05 03:34:00,
2013-12-04 22:39:00,37.1,34.7,30.15,NE,55,1.0,2.0,91,0.00,,,0.01,VWS V14.01,2013-12-05 03:39:00,
2013-12-04 22:44:00,37.2,34.8,30.15,NE,42,1.0,3.0,91,0.00,,,0.01,VWS V14.01,2013-12-05 03:44:00,
2013-12-04 22:49:00,37.2,34.8,30.15,NE,42,3.0,3.0,91,0.00,,,0.01,VWS V14.01,2013-12-05 03:49:00,
2013-12-04 22:54:00,37.3,34.9,30.15,NE,42,3.0,3.0,91,0.00,,,0.01,VWS V14.01,2013-12-05 03:54:00,
2013-12-04 22:59:00,37.3,34.9,30.15,NE,42,0.0,3.0,91,0.00,,,0.01,VWS V14.01,2013-12-05 03:59:00,
2013-12-04 23:04:00,37.4,35.0,30.15,NE,42,0.0,2.0,91,0.00,,,0.01,VWS V14.01,2013-12-05 04:04:00,
2013-12-04 23:09:00,37.5,35.1,30.15,NE,42,1.0,3.0,91,0.00,,,0.01,VWS V14.01,2013-12-05 04:09:00,
2013-12-04 23:14:00,37.5,34.8,30.15,NE,42,1.0,3.0,90,0.00,,,0.01,VWS V14.01,2013-12-05 04:14:00,
2013-12-04 23:19:00,37.4,34.7,30.15,NE,42,2.0,3.0,90,0.00,,,0.01,VWS V14.01,2013-12-05 04:19:00,
2013-12-04 23:24:00,37.1,34.4,30.15,NE,42,1.0,3.0,90,0.00,,,0.01,VWS V14.01,2013-12-05 04:24:00,
2013-12-04 23:29:00,37.0,34.6,30.16,NE,42,1.0,3.0,91,0.00,,,0.01,VWS V14.01,2013-12-05 04:29:00,
2013-12-04 23:34:00,37.0,34.6,30.16,NE,42,0.0,1.0,91,0.00,,,0.01,VWS V14.01,2013-12-05 04:34:00,
2013-12-04 23:39:00,37.1,34.7,30.16,NE,42,2.0,2.0,91,0.00,,,0.01,VWS V14.01,2013-12-05 04:39:00,
2013-12-04 23:44:00,37.2,34.8,30.16,NE,42,0.0,2.0,91,0.00,,,0.01,VWS V14.01,2013-12-05 04:44:00,
2013-12-04 23:50:00,37.3,34.9,30.16,NE,42,2.0,2.0,91,0.00,,,0.01,VWS V14.01,2013-12-05 04:50:00,
2013-12-04 23:55:00,37.5,35.1,30.16,NE,42,0.0,3.0,91,0.00,,,0.01,VWS V14.01,2013-12-05 04:55:00,